createdAt,value
2022-09-03T00:01:45.705Z,18.94
2022-09-03T00:07:00.704Z,18.84
2022-09-03T00:12:10.443Z,18.16
2022-09-03T00:17:25.713Z,18.09
2022-09-03T00:22:36.155Z,17.79
2022-09-03T00:27:41.835Z,17.80
2022-09-03T00:33:09.854Z,17.69
2022-09-03T00:38:12.179Z,17.20
2022-09-03T00:43:46.388Z,17.29
2022-09-03T00:49:22.617Z,17.31
2022-09-03T00:54:36.483Z,17.25
2022-09-03T01:00:00.761Z,17.25
2022-09-03T01:05:12.092Z,17.31
2022-09-03T01:10:28.251Z,17.00
2022-09-03T01:15:52.556Z,16.87
2022-09-03T01:21:13.856Z,17.07
2022-09-03T01:26:25.041Z,17.08
2022-09-03T01:31:58.198Z,16.97
2022-09-03T01:37:32.742Z,17.05
2022-09-03T01:42:56.390Z,17.03
2022-09-03T01:48:17.148Z,17.00
2022-09-03T01:53:41.229Z,17.29
2022-09-03T01:58:47.989Z,17.34
2022-09-03T02:03:51.055Z,16.89
2022-09-03T02:08:54.065Z,17.32
2022-09-03T02:14:00.110Z,17.28
2022-09-03T02:19:06.268Z,17.42
2022-09-03T02:24:09.781Z,17.42
2022-09-03T02:29:15.662Z,17.50
2022-09-03T02:34:17.910Z,17.38
2022-09-03T02:39:20.267Z,17.20
2022-09-03T02:44:30.942Z,17.09
2022-09-03T02:49:33.867Z,17.25
2022-09-03T02:54:40.109Z,17.36
2022-09-03T02:59:44.769Z,17.16
2022-09-03T03:04:47.086Z,17.32
2022-09-03T03:09:49.441Z,17.35
2022-09-03T03:14:51.831Z,17.13
2022-09-03T03:19:55.009Z,16.96
2022-09-03T03:24:58.103Z,17.10
2022-09-03T03:30:00.184Z,17.09
2022-09-03T03:35:02.417Z,17.16
2022-09-03T03:40:05.096Z,16.96
2022-09-03T03:45:08.091Z,17.09
2022-09-03T03:50:10.662Z,16.73
2022-09-03T03:55:12.917Z,16.52
2022-09-03T04:00:18.299Z,16.64
2022-09-03T04:05:23.240Z,16.91
2022-09-03T04:10:26.345Z,16.73
2022-09-03T04:15:28.963Z,16.63
2022-09-03T04:20:31.169Z,16.78
2022-09-03T04:25:33.826Z,17.17
2022-09-03T04:30:37.462Z,17.20
2022-09-03T04:35:41.374Z,17.21
2022-09-03T04:40:44.171Z,17.16
2022-09-03T04:45:46.468Z,17.44
2022-09-03T04:50:48.764Z,17.22
2022-09-03T04:55:51.276Z,17.18
2022-09-03T05:00:53.518Z,17.33
2022-09-03T05:05:56.289Z,17.27
2022-09-03T05:11:01.903Z,17.13
2022-09-03T05:16:10.384Z,17.08
2022-09-03T05:21:19.098Z,17.22
2022-09-03T05:26:25.671Z,17.30
2022-09-03T05:31:32.050Z,17.25
2022-09-03T05:36:37.427Z,16.86
2022-09-03T05:41:40.196Z,17.00
2022-09-03T05:46:42.453Z,16.96
2022-09-03T05:51:44.886Z,17.21
2022-09-03T05:56:47.181Z,17.28
2022-09-03T06:01:56.784Z,17.18
2022-09-03T06:07:03.066Z,17.06
2022-09-03T06:12:05.420Z,17.22
2022-09-03T06:17:11.452Z,17.37
2022-09-03T06:22:13.806Z,17.33
2022-09-03T06:27:15.965Z,17.27
2022-09-03T06:32:23.470Z,17.20
2022-09-03T06:37:25.698Z,17.12
2022-09-03T07:02:31.498Z,17.45
2022-09-03T07:07:33.876Z,17.64
2022-09-03T07:12:37.844Z,17.75
2022-09-03T07:17:40.068Z,17.94
2022-09-03T07:22:42.113Z,18.10
2022-09-03T07:27:44.366Z,17.92
2022-09-03T07:32:47.406Z,17.89
2022-09-03T07:37:49.573Z,17.96
2022-09-03T07:43:04.566Z,18.12
2022-09-03T07:48:06.998Z,17.93
2022-09-03T07:53:09.349Z,17.89
2022-09-03T07:58:12.825Z,18.03
2022-09-03T08:03:14.917Z,18.35
2022-09-03T08:08:18.209Z,17.98
2022-09-03T08:13:22.138Z,17.90
2022-09-03T08:18:24.409Z,17.83
2022-09-03T08:23:26.787Z,17.75
2022-09-03T08:28:30.307Z,18.05
2022-09-03T08:33:39.009Z,17.91
2022-09-03T08:38:43.797Z,17.71
2022-09-03T08:44:05.435Z,18.23
2022-09-03T08:49:11.786Z,18.61
2022-09-03T08:54:14.998Z,18.88
2022-09-03T08:59:17.310Z,18.95
2022-09-03T09:04:42.295Z,18.63
2022-09-03T09:09:49.291Z,18.97
2022-09-03T09:15:21.230Z,19.99
2022-09-03T09:20:32.333Z,20.16
2022-09-03T09:25:42.719Z,19.97
2022-09-03T09:30:47.993Z,20.34
2022-09-03T09:35:50.609Z,20.70
2022-09-03T09:40:52.829Z,19.86
2022-09-03T09:45:55.855Z,20.30
2022-09-03T09:51:31.497Z,20.31
2022-09-03T09:56:33.817Z,21.21
2022-09-03T10:01:39.488Z,21.50
2022-09-03T10:06:57.467Z,21.45
2022-09-03T10:12:25.106Z,21.58
2022-09-03T10:17:46.259Z,22.73
2022-09-03T10:23:16.525Z,22.50
2022-09-03T10:28:18.906Z,22.94
2022-09-03T10:33:39.681Z,23.43
2022-09-03T10:38:44.079Z,23.60
2022-09-03T10:44:00.120Z,22.87
2022-09-03T10:49:14.480Z,22.09
2022-09-03T10:54:24.543Z,21.53
2022-09-03T10:59:59.084Z,22.19
2022-09-03T11:05:08.578Z,22.60
2022-09-03T11:10:17.548Z,22.89
2022-09-03T11:15:35.134Z,22.26
2022-09-03T11:20:39.133Z,22.00
2022-09-03T11:25:53.946Z,22.08
2022-09-03T11:31:05.409Z,21.98
2022-09-03T11:36:07.803Z,21.62
2022-09-03T11:41:35.986Z,21.11
2022-09-03T11:46:41.754Z,20.97
2022-09-03T11:51:45.320Z,20.92
2022-09-03T11:56:50.107Z,20.38
2022-09-03T12:01:53.909Z,20.33
2022-09-03T12:07:09.246Z,20.22
2022-09-03T12:12:24.082Z,19.90
2022-09-03T12:17:49.965Z,19.86
2022-09-03T12:27:54.541Z,19.73
2022-09-03T12:33:07.869Z,20.02
2022-09-03T12:39:07.703Z,19.78
2022-09-03T12:44:01.289Z,19.64
2022-09-03T12:54:30.077Z,19.91
2022-09-03T12:59:35.536Z,19.72
2022-09-03T13:04:40.776Z,19.77
2022-09-03T13:09:43.396Z,19.75
2022-09-03T13:14:52.661Z,19.78
2022-09-03T13:20:17.033Z,19.88
2022-09-03T13:25:38.851Z,19.84
2022-09-03T13:30:54.781Z,19.93
2022-09-03T13:36:05.542Z,19.86
2022-09-03T13:41:37.653Z,19.92
2022-09-03T13:46:54.104Z,19.50
2022-09-03T13:52:04.348Z,19.38
2022-09-03T13:57:22.588Z,19.28
2022-09-03T14:02:52.576Z,19.23
2022-09-03T14:08:08.605Z,19.09
2022-09-03T14:13:29.990Z,19.11
2022-09-03T14:18:32.320Z,18.92
2022-09-03T14:23:55.428Z,19.12
2022-09-03T14:29:07.104Z,19.06
2022-09-03T14:34:42.153Z,18.98
2022-09-03T14:39:55.985Z,18.85
2022-09-03T14:45:30.905Z,18.78
2022-09-03T14:50:45.587Z,18.81
2022-09-03T14:56:15.680Z,18.84
2022-09-03T15:01:37.596Z,18.61
2022-09-03T15:07:08.016Z,18.78
2022-09-03T15:12:13.396Z,18.81
2022-09-03T15:17:36.875Z,18.96
2022-09-03T15:23:23.585Z,18.87
2022-09-03T15:28:43.985Z,19.03
2022-09-03T15:34:03.438Z,18.71
2022-09-03T15:39:18.310Z,18.75
2022-09-03T15:44:20.876Z,18.74
2022-09-03T15:49:47.674Z,18.69
2022-09-03T15:55:08.806Z,18.38
2022-09-03T16:00:21.376Z,18.30
2022-09-03T16:05:39.658Z,18.94
2022-09-03T16:11:13.826Z,19.47
2022-09-03T16:16:42.977Z,19.10
2022-09-03T16:22:00.768Z,19.14
2022-09-03T16:27:11.698Z,19.15
2022-09-03T16:32:42.157Z,18.97
2022-09-03T16:38:00.654Z,19.20
2022-09-03T16:43:40.212Z,19.24
2022-09-03T16:48:55.105Z,19.01
2022-09-03T16:54:14.056Z,18.60
2022-09-03T16:59:29.230Z,18.49
2022-09-03T17:05:00.549Z,18.53
2022-09-03T17:10:11.691Z,18.51
2022-09-03T17:15:32.533Z,18.42
2022-09-03T17:20:49.591Z,18.25
2022-09-03T17:26:06.196Z,18.07
2022-09-03T17:31:10.277Z,18.06
2022-09-03T17:36:18.864Z,18.04
2022-09-03T17:41:48.677Z,17.87
2022-09-03T17:46:50.941Z,18.08
2022-09-03T17:52:05.618Z,17.81
2022-09-03T17:57:32.323Z,17.99
2022-09-03T18:02:44.051Z,17.96
2022-09-03T18:08:04.819Z,18.01
2022-09-03T18:13:25.348Z,17.98
2022-09-03T18:18:33.272Z,18.23
2022-09-03T18:24:11.214Z,18.08
2022-09-03T18:29:58.677Z,17.97
2022-09-03T18:35:19.528Z,17.64
2022-09-03T18:40:47.458Z,17.52
2022-09-03T18:47:22.609Z,17.62
2022-09-03T18:52:30.754Z,17.85
2022-09-03T18:58:17.488Z,17.79
2022-09-03T19:03:59.800Z,17.84
2022-09-03T19:09:20.498Z,17.80
2022-09-03T19:15:27.918Z,18.52
2022-09-03T19:20:52.280Z,18.92
2022-09-03T19:26:18.929Z,18.71
2022-09-03T19:32:03.645Z,18.70
2022-09-03T19:37:44.333Z,18.25
2022-09-03T19:43:44.060Z,18.89
2022-09-03T19:49:34.968Z,18.86
2022-09-03T19:54:56.177Z,18.73
2022-09-03T20:00:18.279Z,18.85
2022-09-03T20:05:51.548Z,18.77
2022-09-03T20:10:57.382Z,18.46
2022-09-03T20:16:16.868Z,18.23
2022-09-03T20:21:40.326Z,18.97
2022-09-03T20:26:52.120Z,19.22
2022-09-03T20:32:16.174Z,18.82
2022-09-03T20:37:28.843Z,18.37
2022-09-03T20:42:54.656Z,17.74
2022-09-03T20:48:00.347Z,17.85
2022-09-03T20:53:44.737Z,17.63
2022-09-03T20:59:01.749Z,17.74
2022-09-03T21:04:07.021Z,17.87
2022-09-03T21:09:30.409Z,17.94
2022-09-03T21:14:44.250Z,17.97
2022-09-03T21:20:23.727Z,18.15
2022-09-03T21:25:37.322Z,17.89
2022-09-03T21:30:46.640Z,17.84
2022-09-03T21:36:01.736Z,17.85
2022-09-03T21:41:24.078Z,17.97
2022-09-03T21:46:33.384Z,17.86
2022-09-03T21:51:50.685Z,17.64
2022-09-03T21:57:14.261Z,17.82
2022-09-03T22:02:30.367Z,17.84
2022-09-03T22:07:53.164Z,17.74
2022-09-03T22:13:15.049Z,17.46
2022-09-03T22:18:31.344Z,17.77
2022-09-03T22:24:07.597Z,18.06
2022-09-03T22:29:18.313Z,17.75
2022-09-03T22:34:40.668Z,17.40
2022-09-03T22:39:47.323Z,17.21
2022-09-03T22:45:13.255Z,17.31
2022-09-03T22:50:31.904Z,17.47
2022-09-03T22:55:38.513Z,17.47
2022-09-03T23:00:45.905Z,17.19
2022-09-03T23:06:10.426Z,17.12
2022-09-03T23:11:25.731Z,17.27
2022-09-03T23:16:34.787Z,17.12
2022-09-03T23:21:43.439Z,17.12
2022-09-03T23:26:52.848Z,16.91
2022-09-03T23:31:57.809Z,17.01
2022-09-03T23:43:00.984Z,16.93
2022-09-03T23:48:37.831Z,16.88
2022-09-03T23:54:20.244Z,16.93
